createdAt,value
2022-11-05T00:00:16.834Z,99952.50
2022-11-05T00:03:02.959Z,99955.72
2022-11-05T00:05:48.887Z,99952.19
2022-11-05T00:08:34.875Z,99959.56
2022-11-05T00:11:04.307Z,99964.44
2022-11-05T00:13:50.314Z,99960.06
2022-11-05T00:16:36.479Z,99952.97
2022-11-05T00:19:06.878Z,99952.97
2022-11-05T00:21:53.447Z,99962.22
2022-11-05T00:24:39.602Z,99963.03
2022-11-05T00:27:10.602Z,99961.41
2022-11-05T00:29:38.084Z,99958.66
2022-11-05T00:32:05.553Z,99949.66
2022-11-05T00:34:32.960Z,99952.38
2022-11-05T00:37:00.340Z,99956.50
2022-11-05T00:39:27.703Z,99950.22
2022-11-05T00:42:13.948Z,99950.47
2022-11-05T00:44:59.806Z,99946.94
2022-11-05T00:47:45.640Z,99954.84
2022-11-05T00:50:15.130Z,99964.94
2022-11-05T00:52:59.340Z,99960.31
2022-11-05T00:55:35.415Z,99965.53
2022-11-05T00:58:03.308Z,99965.03
2022-11-05T01:00:31.309Z,99959.81
2022-11-05T01:03:00.033Z,99964.44
2022-11-05T01:05:27.562Z,99963.88
2022-11-05T01:07:55.120Z,99956.75
2022-11-05T01:10:22.827Z,99961.16
2022-11-05T01:12:50.265Z,99957.84
2022-11-05T01:15:18.244Z,99956.75
2022-11-05T01:17:45.597Z,99958.41
2022-11-05T01:20:13.019Z,99959.50
2022-11-05T01:22:40.442Z,99963.03
2022-11-05T01:25:08.623Z,99963.31
2022-11-05T01:27:37.131Z,99960.59
2022-11-05T01:30:06.294Z,99969.84
2022-11-05T01:32:34.868Z,99966.03
2022-11-05T01:35:03.505Z,99972.31
2022-11-05T01:37:30.963Z,99970.66
2022-11-05T01:39:58.375Z,99971.50
2022-11-05T01:42:26.333Z,99975.88
2022-11-05T01:45:16.654Z,99981.34
2022-11-05T01:47:47.039Z,99981.09
2022-11-05T01:50:29.279Z,99985.97
2022-11-05T01:53:19.216Z,99998.53
2022-11-05T01:55:49.881Z,100001.28
2022-11-05T01:58:19.545Z,99999.09
2022-11-05T02:00:46.913Z,99995.31
2022-11-05T02:03:14.870Z,100006.00
2022-11-05T02:05:42.322Z,100004.91
2022-11-05T02:08:12.958Z,100008.72
2022-11-05T02:10:40.498Z,100008.72
2022-11-05T02:13:08.226Z,100007.88
2022-11-05T02:16:08.110Z,100013.63
2022-11-05T02:18:51.076Z,100011.94
2022-11-05T02:21:18.356Z,100015.00
2022-11-05T02:24:27.534Z,100026.16
2022-11-05T02:26:57.821Z,100025.09
2022-11-05T02:29:37.118Z,100021.53
2022-11-05T02:32:19.724Z,100019.66
2022-11-05T02:34:59.127Z,100021.28
2022-11-05T02:37:40.317Z,100022.38
2022-11-05T02:40:27.052Z,100029.72
2022-11-05T02:43:26.944Z,100027.59
2022-11-05T02:46:12.555Z,100024.59
2022-11-05T02:48:45.719Z,100027.59
2022-11-05T02:51:23.920Z,100031.63
2022-11-05T02:54:11.035Z,100033.56
2022-11-05T02:56:40.362Z,100040.06
2022-11-05T02:59:07.779Z,100039.00
2022-11-05T03:01:35.983Z,100045.81
2022-11-05T03:04:04.778Z,100048.03
2022-11-05T03:07:08.980Z,100050.75
2022-11-05T03:09:45.036Z,100058.13
2022-11-05T03:12:24.252Z,100058.94
2022-11-05T03:14:51.559Z,100049.13
2022-11-05T03:17:51.114Z,100063.84
2022-11-05T03:20:40.360Z,100071.78
2022-11-05T03:23:22.839Z,100062.50
2022-11-05T03:25:53.782Z,100072.59
2022-11-05T03:28:23.050Z,100073.69
2022-11-05T03:30:51.635Z,100068.47
2022-11-05T03:33:21.877Z,100076.91
2022-11-05T03:35:54.494Z,100070.38
2022-11-05T03:38:28.155Z,100076.66
2022-11-05T03:40:58.028Z,100081.03
2022-11-05T03:43:28.919Z,100085.69
2022-11-05T03:45:57.670Z,100090.66
2022-11-05T03:48:30.854Z,100090.66
2022-11-05T03:51:04.713Z,100091.47
2022-11-05T03:53:33.442Z,100102.41
2022-11-05T03:56:17.669Z,100102.66
2022-11-05T03:58:48.029Z,100097.75
2022-11-05T04:01:15.582Z,100093.63
2022-11-05T04:03:43.047Z,100101.81
2022-11-05T04:06:30.275Z,100097.69
2022-11-05T04:09:18.987Z,100106.72
2022-11-05T04:12:07.915Z,100102.06
2022-11-05T04:14:35.377Z,100096.84
2022-11-05T04:17:09.894Z,100096.28
2022-11-05T04:20:00.657Z,100105.91
2022-11-05T04:22:48.710Z,100095.22
2022-11-05T04:25:16.473Z,100107.78
2022-11-05T04:27:44.375Z,100114.34
2022-11-05T04:30:24.229Z,100112.66
2022-11-05T04:33:11.488Z,100108.53
2022-11-05T04:35:51.692Z,100118.13
2022-11-05T04:38:19.747Z,100115.41
2022-11-05T04:40:47.649Z,100109.34
2022-11-05T04:43:16.754Z,100113.19
2022-11-05T04:45:44.558Z,100115.09
2022-11-05T04:48:11.981Z,100110.69
2022-11-05T04:50:39.468Z,100111.78
2022-11-05T04:53:06.890Z,100124.34
2022-11-05T04:55:34.285Z,100119.13
2022-11-05T04:58:01.710Z,100120.78
2022-11-05T05:00:29.160Z,100129.00
2022-11-05T05:02:56.639Z,100130.91
2022-11-05T05:05:24.135Z,100126.50
2022-11-05T05:07:51.655Z,100122.94
2022-11-05T05:10:19.137Z,100127.91
2022-11-05T05:12:46.599Z,100138.25
2022-11-05T05:15:14.018Z,100140.72
2022-11-05T05:17:41.380Z,100143.22
2022-11-05T05:20:30.635Z,100158.22
2022-11-05T05:22:58.547Z,100151.06
2022-11-05T05:25:25.908Z,100153.56
2022-11-05T05:27:53.543Z,100156.28
2022-11-05T05:30:20.938Z,100156.06
2022-11-05T05:32:48.355Z,100166.41
2022-11-05T05:35:15.928Z,100169.94
2022-11-05T05:37:43.645Z,100163.66
2022-11-05T05:40:11.433Z,100176.22
2022-11-05T05:42:42.859Z,100168.28
2022-11-05T05:45:12.026Z,100178.38
2022-11-05T05:47:39.448Z,100184.09
2022-11-05T05:50:06.998Z,100182.19
2022-11-05T05:52:34.394Z,100186.56
2022-11-05T05:55:01.776Z,100187.63
2022-11-05T05:57:29.162Z,100196.69
2022-11-05T05:59:56.566Z,100183.03
2022-11-05T06:02:24.120Z,100196.09
2022-11-05T06:04:51.734Z,100193.38
2022-11-05T06:07:19.096Z,100195.22
2022-11-05T06:09:46.681Z,100195.22
2022-11-05T06:12:14.071Z,100203.19
2022-11-05T06:14:41.463Z,100202.59
2022-11-05T06:17:08.863Z,100208.66
2022-11-05T06:19:36.205Z,100206.13
2022-11-05T06:22:03.714Z,100212.47
2022-11-05T06:24:31.055Z,100212.22
2022-11-05T06:27:01.382Z,100214.94
2022-11-05T06:29:28.738Z,100221.50
2022-11-05T06:31:56.100Z,100225.25
2022-11-05T06:34:23.477Z,100226.13
2022-11-05T06:36:50.967Z,100221.69
2022-11-05T06:39:18.326Z,100222.78
2022-11-05T06:42:11.839Z,100225.25
2022-11-05T06:44:33.190Z,100232.41
2022-11-05T06:47:00.565Z,100237.06
2022-11-05T06:49:27.930Z,100242.16
2022-11-05T06:51:55.448Z,100242.72
2022-11-05T06:54:22.841Z,100249.25
2022-11-05T06:56:50.247Z,100249.84
2022-11-05T06:59:17.628Z,100246.88
2022-11-05T07:01:45.079Z,100261.38
2022-11-05T07:04:12.621Z,100260.75
2022-11-05T07:06:39.984Z,100269.56
2022-11-05T07:09:09.277Z,100269.06
2022-11-05T07:11:36.648Z,100268.50
2022-11-05T07:14:04.004Z,100266.81
2022-11-05T07:16:31.626Z,100268.13
2022-11-05T07:18:59.143Z,100268.50
2022-11-05T07:21:26.510Z,100270.41
2022-11-05T07:23:53.917Z,100272.03
2022-11-05T07:26:21.348Z,100272.03
2022-11-05T07:28:48.770Z,100277.50
2022-11-05T07:31:16.123Z,100289.28
2022-11-05T07:33:44.407Z,100290.94
2022-11-05T07:36:11.792Z,100298.53
2022-11-05T07:38:41.782Z,100298.53
2022-11-05T07:41:09.102Z,100296.63
2022-11-05T07:43:36.488Z,100301.84
2022-11-05T07:46:03.852Z,100313.59
2022-11-05T07:48:31.247Z,100309.22
2022-11-05T07:50:58.608Z,100315.84
2022-11-05T07:53:26.017Z,100319.16
2022-11-05T07:55:53.423Z,100320.56
2022-11-05T07:58:20.759Z,100325.19
2022-11-05T08:00:48.211Z,100336.13
2022-11-05T08:03:16.981Z,100334.22
2022-11-05T08:05:46.312Z,100334.81
2022-11-05T08:08:16.074Z,100337.06
2022-11-05T08:10:43.579Z,100349.97
2022-11-05T08:13:14.123Z,100349.97
2022-11-05T08:15:42.761Z,100351.63
2022-11-05T08:18:14.818Z,100348.06
2022-11-05T08:20:42.561Z,100355.78
2022-11-05T08:23:10.407Z,100353.03
2022-11-05T08:25:38.101Z,100356.34
2022-11-05T08:28:07.543Z,100366.19
2022-11-05T08:30:34.947Z,100362.41
2022-11-05T08:33:04.353Z,100372.25
2022-11-05T08:35:31.897Z,100371.19
2022-11-05T08:38:00.620Z,100374.72
2022-11-05T08:40:28.135Z,100375.59
2022-11-05T08:42:59.514Z,100373.66
2022-11-05T08:45:27.263Z,100377.81
2022-11-05T08:48:04.452Z,100377.22
2022-11-05T08:50:32.063Z,100380.06
2022-11-05T08:52:59.503Z,100379.56
2022-11-05T08:55:27.050Z,100369.72
2022-11-05T08:57:58.737Z,100374.09
2022-11-05T09:00:26.807Z,100376.59
2022-11-05T09:02:54.285Z,100386.69
2022-11-05T09:05:21.662Z,100391.06
2022-11-05T09:07:49.267Z,100386.69
2022-11-05T09:10:16.767Z,100399.25
2022-11-05T09:12:44.655Z,100393.78
2022-11-05T09:15:12.042Z,100399.25
2022-11-05T09:17:39.999Z,100407.22
2022-11-05T09:20:08.196Z,100401.75
2022-11-05T09:22:39.230Z,100406.41
2022-11-05T09:25:10.415Z,100411.88
2022-11-05T09:27:37.851Z,100413.50
2022-11-05T09:30:05.696Z,100410.78
2022-11-05T09:32:33.907Z,100407.22
2022-11-05T09:35:01.385Z,100412.22
2022-11-05T09:37:29.001Z,100407.56
2022-11-05T09:39:56.354Z,100412.22
2022-11-05T09:42:26.901Z,100417.69
2022-11-05T09:44:59.519Z,100419.31
2022-11-05T09:47:33.207Z,100417.69
2022-11-05T09:50:06.604Z,100419.06
2022-11-05T09:52:33.991Z,100425.59
2022-11-05T09:55:03.730Z,100417.41
2022-11-05T09:57:35.153Z,100431.66
2022-11-05T10:00:05.303Z,100425.38
2022-11-05T10:02:51.806Z,100432.97
2022-11-05T10:05:19.236Z,100429.78
2022-11-05T10:07:59.165Z,100440.94
2022-11-05T10:10:49.584Z,100434.66
2022-11-05T10:13:38.121Z,100433.81
2022-11-05T10:16:28.751Z,100436.28
2022-11-05T10:19:26.637Z,100438.22
2022-11-05T10:22:11.258Z,100444.50
2022-11-05T10:24:41.383Z,100448.06
2022-11-05T10:27:13.212Z,100438.22
2022-11-05T10:29:40.615Z,100435.47
2022-11-05T10:32:08.216Z,100443.69
2022-11-05T10:34:36.934Z,100434.38
2022-11-05T10:37:04.455Z,100442.00
2022-11-05T10:39:32.573Z,100438.22
2022-11-05T10:42:06.042Z,100444.72
2022-11-05T10:44:51.053Z,100451.06
2022-11-05T10:47:35.394Z,100448.31
2022-11-05T10:50:05.353Z,100453.50
2022-11-05T10:52:51.511Z,100447.22
2022-11-05T10:55:22.319Z,100460.66
2022-11-05T10:57:49.848Z,100451.38
2022-11-05T11:00:17.119Z,100447.00
2022-11-05T11:02:50.173Z,100443.44
2022-11-05T11:05:29.768Z,100453.50
2022-11-05T11:08:20.319Z,100448.63
2022-11-05T11:10:51.280Z,100447.56
2022-11-05T11:13:55.962Z,100447.81
2022-11-05T11:16:25.002Z,100445.44
2022-11-05T11:18:56.875Z,100441.53
2022-11-05T11:21:24.484Z,100441.53
2022-11-05T11:24:03.096Z,100444.84
2022-11-05T11:26:35.642Z,100442.94
2022-11-05T11:29:17.067Z,100441.53
2022-11-05T11:31:44.436Z,100439.38
2022-11-05T11:34:33.880Z,100451.38
2022-11-05T11:37:08.406Z,100441.28
2022-11-05T11:39:35.835Z,100440.19
2022-11-05T11:42:07.831Z,100443.16
2022-11-05T11:44:40.889Z,100448.63
2022-11-05T11:47:16.684Z,100442.94
2022-11-05T11:49:53.480Z,100437.69
2022-11-05T11:52:28.390Z,100438.56
2022-11-05T11:55:11.342Z,100437.69
2022-11-05T11:57:49.357Z,100441.03
2022-11-05T12:00:17.526Z,100440.53
2022-11-05T12:03:01.613Z,100443.50
2022-11-05T12:05:31.819Z,100444.34
2022-11-05T12:08:24.239Z,100448.16
2022-11-05T12:11:20.894Z,100443.16
2022-11-05T12:13:51.259Z,100444.84
2022-11-05T12:16:45.810Z,100443.16
2022-11-05T12:19:36.797Z,100442.34
2022-11-05T12:22:10.484Z,100440.44
2022-11-05T12:25:05.560Z,100441.53
2022-11-05T12:27:41.722Z,100433.41
2022-11-05T12:30:21.576Z,100437.22
2022-11-05T12:33:08.888Z,100432.81
2022-11-05T12:35:57.354Z,100430.34
2022-11-05T12:38:37.395Z,100429.50
2022-11-05T12:41:29.766Z,100432.75
2022-11-05T12:44:24.127Z,100435.25
2022-11-05T12:47:18.602Z,100437.13
2022-11-05T12:50:04.754Z,100439.63
2022-11-05T12:52:52.265Z,100434.16
2022-11-05T12:55:22.226Z,100432.22
2022-11-05T12:57:52.064Z,100429.50
2022-11-05T13:00:23.883Z,100432.22
2022-11-05T13:02:54.882Z,100435.47
2022-11-05T13:05:35.271Z,100441.53
2022-11-05T13:08:07.501Z,100442.84
2022-11-05T13:10:40.367Z,100431.91
2022-11-05T13:13:23.197Z,100441.19
2022-11-05T13:16:02.259Z,100439.28
2022-11-05T13:18:44.763Z,100440.94
2022-11-05T13:21:12.178Z,100442.09
2022-11-05T13:23:57.635Z,100437.13
2022-11-05T13:26:29.465Z,100431.66
2022-11-05T13:28:56.758Z,100437.97
2022-11-05T13:31:38.025Z,100433.91
